SKBO/BOG METAR and TAF weather

Enter ICAO airport designator
Station Type Date Time Source
SKBO METAR 2024/04/18 08:00 UTC NOAA

SKBO 180800Z 34002KT 6000 FEW015 BKN070 10/10 Q1026 NOSIG RMK BR


Station Type Date Time Source
SKBO Decoded METAR 2024/04/18 08:00 UTC NOAA

Bogota / Eldorado, Colombia (SKBO) 04-43N 074-09W 2548M
Apr 18, 2024 - 04:00 AM EDT / 2024.04.18 0800 UTC
Wind: from the NNW (340 degrees) at 2 MPH (2 KT):0
Visibility: 3 mile(s):0
Sky conditions: mostly cloudy
Temperature: 50 F (10 C)
Dew Point: 50 F (10 C)
Relative Humidity: 100%
Pressure (altimeter): 30.30 in. Hg (1026 hPa)
ob: SKBO 180800Z 34002KT 6000 FEW015 BKN070 10/10 Q1026 NOSIG RMK BR
cycle: 8

Station Type Date Time Source
SKBO TAF 2024/04/18 18:42 UTC NOAA